createdAt,value
2022-12-13T00:03:12.683Z,26.4
2022-12-13T00:08:51.691Z,26.1
2022-12-13T00:14:29.618Z,25.8
2022-12-13T00:20:07.975Z,27.4
2022-12-13T00:25:52.765Z,27.2
2022-12-13T00:32:13.249Z,26.3
2022-12-13T00:37:50.801Z,26.5
2022-12-13T00:43:12.851Z,25.9
2022-12-13T00:48:52.593Z,26.9
2022-12-13T00:54:30.216Z,28.2
2022-12-13T00:59:58.966Z,26.3
2022-12-13T01:06:14.647Z,26.6
2022-12-13T01:11:53.075Z,26
2022-12-13T01:17:31.470Z,26.4
2022-12-13T01:23:11.037Z,28
2022-12-13T01:28:38.139Z,26.6
2022-12-13T01:34:21.665Z,25.9
2022-12-13T01:40:38.505Z,27.4
2022-12-13T01:46:35.005Z,26.9
2022-12-13T01:52:23.529Z,25.9
2022-12-13T01:58:19.668Z,26.4
2022-12-13T02:03:38.097Z,25.8
2022-12-13T02:09:09.747Z,26.8
2022-12-13T02:14:47.159Z,28.3
2022-12-13T02:20:38.928Z,25.4
2022-12-13T02:26:23.328Z,26.9
2022-12-13T02:32:35.260Z,27.6
2022-12-13T02:38:08.359Z,25.9
2022-12-13T02:44:13.047Z,27
2022-12-13T02:50:09.211Z,28.1
2022-12-13T02:55:50.161Z,25.9
2022-12-13T03:01:28.280Z,26.7
2022-12-13T03:06:56.945Z,28.1
2022-12-13T03:12:20.943Z,26.3
2022-12-13T03:17:48.443Z,25.7
2022-12-13T03:23:13.800Z,27.1
2022-12-13T03:29:09.355Z,28.4
2022-12-13T03:35:00.858Z,25.9
2022-12-13T03:41:09.803Z,26.6
2022-12-13T03:46:48.276Z,28
2022-12-13T03:52:42.236Z,26.4
2022-12-13T03:58:51.175Z,26.2
2022-12-13T04:04:27.968Z,27.5
2022-12-13T04:11:00.580Z,27.1
2022-12-13T04:16:42.088Z,25.7
2022-12-13T04:22:10.536Z,27
2022-12-13T04:27:53.244Z,28.1
2022-12-13T04:33:33.879Z,24.9
2022-12-13T04:39:02.198Z,27.1
2022-12-13T04:44:05.676Z,27.7
2022-12-13T04:49:56.138Z,25.9
2022-12-13T04:55:15.001Z,26.5
2022-12-13T05:00:54.296Z,27.8
2022-12-13T05:06:26.171Z,26.5
2022-12-13T05:12:39.662Z,25.6
2022-12-13T05:18:27.588Z,27.1
2022-12-13T05:23:56.690Z,28.4
2022-12-13T05:30:02.519Z,25.9
2022-12-13T05:35:39.992Z,26.3
2022-12-13T05:41:43.395Z,25.8
2022-12-13T05:47:21.087Z,25.4
2022-12-13T05:52:51.327Z,24.8
2022-12-13T05:58:30.019Z,25.6
2022-12-13T06:04:39.731Z,27.1
2022-12-13T06:10:51.814Z,25.3
2022-12-13T06:18:28.508Z,25.7
2022-12-13T06:24:14.168Z,24.9
2022-12-13T06:29:41.796Z,24.6
2022-12-13T06:36:03.751Z,24.9
2022-12-13T06:41:51.211Z,26.7
2022-12-13T06:47:47.874Z,25.3
2022-12-13T06:53:31.029Z,24.9
2022-12-13T06:59:18.618Z,26.3
2022-12-13T07:05:59.610Z,26
2022-12-13T07:11:51.858Z,25
2022-12-13T07:17:31.754Z,25.3
2022-12-13T07:23:32.621Z,24.8
2022-12-13T07:29:39.214Z,24.4
2022-12-13T07:35:22.600Z,25.5
2022-12-13T07:41:28.195Z,25.1
2022-12-13T07:47:12.255Z,24
2022-12-13T07:53:11.069Z,26.1
2022-12-13T07:59:15.319Z,26.1
2022-12-13T08:05:26.235Z,24.9
2022-12-13T08:11:04.729Z,26.1
2022-12-13T08:17:00.237Z,27.2
2022-12-13T08:23:36.742Z,24.9
2022-12-13T08:29:33.798Z,25.4
2022-12-13T08:35:19.650Z,24.7
2022-12-13T08:41:07.950Z,24.4
2022-12-13T08:46:51.957Z,25.2
2022-12-13T08:52:27.212Z,26.7
2022-12-13T08:58:35.528Z,25.3
2022-12-13T09:04:19.997Z,24.6
2022-12-13T09:11:01.575Z,26.2
2022-12-13T09:18:15.083Z,25.5
2022-12-13T09:25:24.127Z,24.6
2022-12-13T09:31:25.993Z,24.9
2022-12-13T09:37:26.125Z,24.8
2022-12-13T09:44:07.037Z,26.3
2022-12-13T09:52:33.610Z,25.1
2022-12-13T09:58:58.211Z,25.5
2022-12-13T10:04:43.896Z,26.8
2022-12-13T10:10:39.755Z,25.1
2022-12-13T10:16:36.042Z,25.9
2022-12-13T10:22:36.008Z,26.1
2022-12-13T10:29:46.504Z,24.6
2022-12-13T10:35:41.649Z,24.9
2022-12-13T10:41:23.189Z,24.5
2022-12-13T10:47:12.598Z,25.7
2022-12-13T10:53:05.544Z,27.3
2022-12-13T10:59:33.390Z,24.4
2022-12-13T11:05:39.524Z,25.7
2022-12-13T11:11:34.096Z,27.2
2022-12-13T11:17:21.090Z,24.5
2022-12-13T11:23:08.185Z,25.4
2022-12-13T11:29:18.219Z,26.8
2022-12-13T11:34:57.006Z,24.8
2022-12-13T11:40:23.491Z,25.1
2022-12-13T11:46:03.926Z,26.4
2022-12-13T11:51:58.713Z,25.3
2022-12-13T11:57:34.711Z,24.4
2022-12-13T12:04:19.897Z,26.3
2022-12-13T12:11:09.143Z,25.5
2022-12-13T12:17:02.380Z,24.4
2022-12-13T12:23:24.576Z,25.9
2022-12-13T12:29:18.421Z,26.8
2022-12-13T12:35:18.641Z,26.1
2022-12-13T12:41:31.102Z,25.8
2022-12-13T12:49:53.995Z,24.6
2022-12-13T12:55:39.171Z,24.9
2022-12-13T13:01:26.371Z,24.6
2022-12-13T13:07:39.526Z,24
2022-12-13T13:14:40.635Z,23.8
2022-12-13T13:20:28.395Z,23.5
2022-12-13T13:27:38.493Z,25.4
2022-12-13T13:33:36.471Z,26.8
2022-12-13T13:39:04.872Z,24.5
2022-12-13T13:45:02.966Z,25.1
2022-12-13T13:50:52.093Z,24.6
2022-12-13T13:56:41.384Z,24.2
2022-12-13T14:02:58.786Z,23
2022-12-13T14:08:54.295Z,20.4
2022-12-13T14:14:39.110Z,18.3
2022-12-13T14:20:19.750Z,16.8
2022-12-13T14:25:52.516Z,15.9
2022-12-13T14:32:10.633Z,15.4
2022-12-13T14:38:30.984Z,15.1
2022-12-13T14:44:20.944Z,14.9
2022-12-13T14:50:14.762Z,14.8
2022-12-13T14:56:06.635Z,14.6
2022-12-13T15:01:51.873Z,14.6
2022-12-13T15:07:55.724Z,14.4
2022-12-13T15:14:07.131Z,14.8
2022-12-13T15:19:33.043Z,34.3
2022-12-13T15:25:30.412Z,38.3
2022-12-13T15:31:25.208Z,43.2
2022-12-13T15:37:45.935Z,45.9
2022-12-13T15:43:27.135Z,46.6
2022-12-13T15:49:25.859Z,47.3
2022-12-13T15:55:07.852Z,46.4
2022-12-13T16:00:48.171Z,43.8
2022-12-13T16:06:29.655Z,41.8
2022-12-13T16:12:24.126Z,30.7
2022-12-13T16:18:33.557Z,28.1
2022-12-13T16:24:39.521Z,49.1
2022-12-13T16:30:28.630Z,49.8
2022-12-13T16:36:48.543Z,31.3
2022-12-13T16:43:05.860Z,36
2022-12-13T16:50:32.107Z,46.9
2022-12-13T16:56:15.245Z,28.9
2022-12-13T17:01:38.704Z,47.9
2022-12-13T17:07:23.521Z,35.9
2022-12-13T17:13:15.342Z,32.5
2022-12-13T17:19:03.094Z,34.1
2022-12-13T17:24:58.823Z,50.4
2022-12-13T17:30:36.480Z,34.5
2022-12-13T17:36:09.255Z,53.2
2022-12-13T17:41:54.548Z,52.8
2022-12-13T17:47:29.712Z,48.8
2022-12-13T17:53:16.118Z,33.1
2022-12-13T17:58:40.436Z,36.5
2022-12-13T18:04:04.013Z,49.1
2022-12-13T18:09:31.984Z,32.1
2022-12-13T18:15:53.195Z,35.7
2022-12-13T18:22:33.500Z,47.9
2022-12-13T18:28:06.871Z,46
2022-12-13T18:33:48.947Z,32.1
2022-12-13T18:39:28.008Z,46.4
2022-12-13T18:45:28.385Z,50.2
2022-12-13T18:50:48.843Z,52.3
2022-12-13T18:56:19.555Z,53.4
2022-12-13T19:01:52.661Z,52.6
2022-12-13T19:07:42.842Z,50
2022-12-13T19:12:58.527Z,50.8
2022-12-13T19:18:32.796Z,48.8
2022-12-13T19:24:10.709Z,32.7
2022-12-13T19:29:48.985Z,38.2
2022-12-13T19:35:12.227Z,31.2
2022-12-13T19:40:56.715Z,39.8
2022-12-13T19:46:40.448Z,45.8
2022-12-13T19:52:18.925Z,31.5
2022-12-13T19:57:58.212Z,44.9
2022-12-13T20:03:05.686Z,43.7
2022-12-13T20:08:49.542Z,31.8
2022-12-13T20:14:20.388Z,37.8
2022-12-13T20:19:59.972Z,30.5
2022-12-13T20:25:39.654Z,42.9
2022-12-13T20:31:20.965Z,45.3
2022-12-13T20:37:22.348Z,44.8
2022-12-13T20:43:00.863Z,43.4
2022-12-13T20:48:12.979Z,31.3
2022-12-13T20:53:58.458Z,38.8
2022-12-13T20:59:30.718Z,30.8
2022-12-13T21:04:54.317Z,33.7
2022-12-13T21:10:19.844Z,30.3
2022-12-13T21:16:08.697Z,38.6
2022-12-13T21:21:54.143Z,30.3
2022-12-13T21:27:36.758Z,29.7
2022-12-13T21:33:14.744Z,37.3
2022-12-13T21:38:56.188Z,30
2022-12-13T21:44:38.883Z,29.4
2022-12-13T21:51:03.132Z,29.3
2022-12-13T21:57:18.907Z,29.1
2022-12-13T22:02:42.054Z,28.9
2022-12-13T22:08:04.744Z,28.8
2022-12-13T22:13:33.353Z,28.6
2022-12-13T22:19:17.493Z,28.4
2022-12-13T22:24:55.394Z,28.1
2022-12-13T22:30:22.106Z,27.9
2022-12-13T22:35:44.681Z,28.1
2022-12-13T22:41:25.243Z,27.7
2022-12-13T22:47:03.417Z,27.3
2022-12-13T22:52:28.958Z,26.7
2022-12-13T22:58:08.365Z,26
2022-12-13T23:03:48.071Z,25.8
2022-12-13T23:14:24.686Z,27.4
2022-12-13T23:20:43.961Z,27.1
2022-12-13T23:26:26.080Z,26.6
2022-12-13T23:31:49.278Z,26.2
2022-12-13T23:37:33.339Z,27.6
2022-12-13T23:42:44.582Z,27.2
2022-12-13T23:48:29.489Z,26.7
2022-12-13T23:54:07.813Z,26.6
2022-12-13T23:59:45.137Z,25.9
